Time;durP1;ratioP1;P1;durP2;ratioP2;P2;SDS_P1;SDS_P2;PMS_P1;PMS_P2;Temp;Humidity;BMP_temperature;BMP_pressure;BME280_temperature;BME280_humidity;BME280_pressure;Samples;Min_cycle;Max_cycle;Signal;HPM_P1;HPM_P2
2021/10/04 08:14:54;;;;;;;5.08;2.67;;;;;;;14.19;44.25;101430.20;1692331;82;21181;-33
2021/10/04 08:17:35;;;;;;;4.10;2.30;;;;;;;14.27;43.37;101434.19;1675793;83;21069;-35
2021/10/04 08:24:48;;;;;;;3.40;2.37;;;;;;;14.37;42.84;101428.92;1665449;84;21197;-31
2021/10/04 08:28:27;;;;;;;3.87;2.52;;;;;;;14.50;42.99;101426.38;1668768;84;22009;-31
2021/10/04 08:31:18;;;;;;;5.10;2.65;;;;;;;14.68;42.21;101424.21;1669809;84;22019;-32
2021/10/04 08:38:20;;;;;;;3.22;2.15;;;;;;;14.85;41.29;101425.98;1670592;84;21539;-32
2021/10/04 08:40:54;;;;;;;8.78;2.65;;;;;;;14.89;40.01;101429.03;1666912;84;21104;-32
2021/10/04 08:43:21;;;;;;;3.15;2.85;;;;;;;14.88;40.11;101418.05;1669689;83;22062;-31
2021/10/04 08:45:48;;;;;;;5.22;2.92;;;;;;;14.89;40.20;101411.03;1664577;84;21044;-31
2021/10/04 08:48:15;;;;;;;2.40;2.20;;;;;;;14.92;40.79;101407.09;1670000;84;21108;-36
2021/10/04 08:50:43;;;;;;;4.45;2.58;;;;;;;14.92;40.66;101401.82;1671898;84;21007;-31
2021/10/04 08:53:10;;;;;;;4.75;2.10;;;;;;;14.88;40.32;101394.78;1671976;84;21038;-36
2021/10/04 08:55:37;;;;;;;6.55;3.15;;;;;;;14.89;40.05;101403.13;1673210;84;21073;-32
2021/10/04 08:58:09;;;;;;;7.10;2.55;;;;;;;14.90;39.91;101403.55;1670800;84;21526;-37
2021/10/04 09:00:37;;;;;;;6.85;2.62;;;;;;;14.90;39.92;101404.47;1669272;84;21470;-35
2021/10/04 09:03:04;;;;;;;4.62;2.85;;;;;;;14.98;39.33;101403.13;1651826;84;21495;-32
2021/10/04 09:05:31;;;;;;;7.12;2.70;;;;;;;15.07;39.47;101394.33;1668644;84;20997;-32
2021/10/04 09:08:06;;;;;;;3.58;2.72;;;;;;;15.16;39.94;101395.64;1676523;84;21028;-31
2021/10/04 09:10:32;;;;;;;4.25;2.83;;;;;;;15.24;39.71;101383.31;1667880;84;21045;-36
2021/10/04 09:13:03;;;;;;;4.90;2.72;;;;;;;15.33;39.50;101380.67;1669571;82;21668;-31
2021/10/04 09:15:43;;;;;;;6.53;2.67;;;;;;;15.40;39.30;101377.13;1668673;84;21594;-32
2021/10/04 09:18:22;;;;;;;6.85;2.85;;;;;;;15.48;38.59;101374.50;1663757;84;21032;-31
2021/10/04 09:20:55;;;;;;;4.62;2.90;;;;;;;15.52;38.19;101372.70;1665228;84;21033;-37
2021/10/04 09:23:43;;;;;;;7.15;2.80;;;;;;;15.52;38.77;101365.67;1661603;84;21113;-31
2021/10/04 09:26:55;;;;;;;6.25;3.00;;;;;;;15.59;38.23;101368.71;1665687;84;21013;-32
2021/10/04 09:29:48;;;;;;;13.05;3.25;;;;;;;15.67;38.21;101372.70;1666686;84;21087;-35
2021/10/04 09:32:42;;;;;;;7.47;3.02;;;;;;;15.74;37.53;101367.82;1658388;84;21013;-36
2021/10/04 09:35:48;;;;;;;13.18;3.22;;;;;;;15.78;37.94;101370.02;1668430;84;21681;-37
2021/10/04 09:42:22;;;;;;;8.70;3.37;;;;;;;15.88;36.89;101359.83;1664029;84;21517;-32
2021/10/04 09:45:00;;;;;;;5.58;2.98;;;;;;;15.92;36.23;101358.50;1673088;84;21510;-37
2021/10/04 09:47:43;;;;;;;6.42;3.08;;;;;;;15.93;35.95;101351.00;1671909;84;21567;-31
2021/10/04 09:50:13;;;;;;;15.50;3.92;;;;;;;16.01;35.91;101349.67;1670115;83;21073;-39
2021/10/04 09:53:24;;;;;;;5.33;3.42;;;;;;;16.09;35.94;101349.16;1671571;84;21060;-36
2021/10/04 09:56:09;;;;;;;5.87;3.20;;;;;;;16.18;36.01;101343.84;1673208;84;21062;-37
2021/10/04 09:58:41;;;;;;;9.03;3.20;;;;;;;16.33;36.47;101345.48;1625296;84;21706;-36
2021/10/04 10:01:14;;;;;;;6.28;3.62;;;;;;;16.45;36.46;101344.07;1672778;84;21619;-37
2021/10/04 10:03:43;;;;;;;10.60;3.45;;;;;;;16.68;35.19;101334.64;1658733;84;21137;-35
2021/10/04 10:06:09;;;;;;;6.12;2.50;;;;;;;16.96;33.93;101337.06;1665853;84;21021;-37
2021/10/04 10:08:36;;;;;;;5.97;3.08;;;;;;;17.22;32.86;101335.46;1666336;84;21582;-33
2021/10/04 10:11:05;;;;;;;4.28;2.90;;;;;;;17.45;32.49;101328.59;1663713;84;21439;-35
2021/10/04 10:13:38;;;;;;;4.95;3.00;;;;;;;17.69;31.22;101328.30;1662387;84;21660;-34
2021/10/04 10:16:33;;;;;;;7.35;3.00;;;;;;;18.08;30.47;101332.63;1663625;84;21054;-36
2021/10/04 10:19:12;;;;;;;17.90;3.05;;;;;;;18.65;29.90;101331.30;1664900;84;21353;-37
2021/10/04 10:22:21;;;;;;;3.60;2.58;;;;;;;19.21;29.73;101325.91;1664720;84;21006;-36
2021/10/04 10:24:53;;;;;;;5.67;2.85;;;;;;;19.91;28.98;101322.69;1668232;84;21494;-33
2021/10/04 10:27:46;;;;;;;;;;;;;;;20.47;28.05;101315.66;1675893;84;20990;-37
2021/10/04 10:30:33;;;;;;;4.45;2.60;;;;;;;20.82;27.52;101308.58;1668657;84;20157;-32
2021/10/04 10:33:00;;;;;;;2.58;2.30;;;;;;;21.37;26.69;101313.73;1670302;84;21062;-36
2021/10/04 10:35:48;;;;;;;5.17;2.58;;;;;;;21.85;26.12;101310.05;1667356;84;21477;-36
2021/10/04 10:38:17;;;;;;;4.90;2.67;;;;;;;22.35;25.34;101308.09;1669417;84;21433;-32
2021/10/04 10:41:06;;;;;;;5.37;2.58;;;;;;;22.78;25.15;101306.16;1670069;84;21073;-37
2021/10/04 10:43:54;;;;;;;6.85;2.67;;;;;;;23.10;24.62;101301.06;1666197;84;21092;-36
2021/10/04 10:46:49;;;;;;;4.87;2.40;;;;;;;23.42;24.30;101300.33;1669224;84;21711;-36
2021/10/04 10:50:05;;;;;;;2.77;2.12;;;;;;;23.71;23.98;101293.91;1668556;84;21517;-37
2021/10/04 10:52:33;;;;;;;12.40;4.08;;;;;;;24.03;22.45;101300.67;1671789;84;21017;-32
2021/10/04 10:55:00;;;;;;;7.37;2.98;;;;;;;24.17;22.03;101294.29;1673274;83;21735;-32
2021/10/04 10:57:55;;;;;;;3.47;2.40;;;;;;;24.33;22.18;101290.53;1669256;84;20997;-36
2021/10/04 11:00:33;;;;;;;7.22;2.55;;;;;;;24.47;21.97;101285.96;1668817;84;21462;-38
2021/10/04 11:03:18;;;;;;;4.95;2.60;;;;;;;24.46;22.05;101287.77;1666496;84;21356;-37
2021/10/04 11:06:04;;;;;;;6.85;2.25;;;;;;;24.66;21.98;101281.59;1664421;84;21139;-33
2021/10/04 11:09:00;;;;;;;5.30;2.80;;;;;;;25.00;22.10;101282.80;1665857;83;21497;-32
2021/10/04 11:11:42;;;;;;;3.12;2.22;;;;;;;25.32;21.12;101282.22;1669919;84;21036;-32
2021/10/04 11:14:21;;;;;;;7.05;2.10;;;;;;;25.59;20.58;101276.54;1631254;86;21048;-32
2021/10/04 11:17:12;;;;;;;3.55;2.12;;;;;;;25.69;20.46;101285.89;1668747;84;21533;-32
2021/10/04 11:19:45;;;;;;;2.67;2.30;;;;;;;25.37;20.26;101273.52;1669548;84;21045;-32
2021/10/04 11:23:06;;;;;;;4.17;2.47;;;;;;;24.99;20.51;101277.91;1666348;84;21588;-31
2021/10/04 11:26:20;;;;;;;6.83;2.20;;;;;;;24.51;20.88;101280.42;1674065;84;21065;-32
2021/10/04 11:29:28;;;;;;;4.70;2.50;;;;;;;23.77;21.47;101285.22;1668127;84;21104;-35
2021/10/04 11:37:24;;;;;;;5.40;2.30;;;;;;;22.84;22.91;101283.27;1672198;84;21010;-31
2021/10/04 11:40:16;;;;;;;2.83;2.20;;;;;;;22.11;24.01;101293.30;1669687;84;21060;-37
2021/10/04 11:42:43;;;;;;;7.40;3.45;;;;;;;21.34;24.32;101293.84;1672652;84;21886;-37
2021/10/04 11:45:16;;;;;;;3.33;2.77;;;;;;;21.02;24.02;101286.28;1671070;84;21407;-37
2021/10/04 11:47:45;;;;;;;3.92;2.65;;;;;;;20.66;24.72;101286.83;1669965;84;21082;-37
2021/10/04 11:50:15;;;;;;;7.45;2.52;;;;;;;20.25;25.43;101291.82;1674475;83;21075;-31
2021/10/04 11:52:48;;;;;;;6.05;2.20;;;;;;;19.92;25.99;101285.92;1671641;84;20973;-39
2021/10/04 11:55:15;;;;;;;9.00;2.62;;;;;;;19.76;26.01;101288.50;1669090;84;21076;-39
2021/10/04 11:58:00;;;;;;;3.22;1.80;;;;;;;19.64;26.24;101287.45;1671229;84;21639;-33
2021/10/04 12:00:52;;;;;;;6.03;2.40;;;;;;;19.57;26.67;101287.13;1653256;84;21483;-40
2021/10/04 12:03:26;;;;;;;3.15;2.20;;;;;;;19.46;26.87;101290.47;1668186;84;21483;-34
2021/10/04 12:05:53;;;;;;;3.67;2.30;;;;;;;19.26;26.93;101292.22;1668605;84;21596;-34
2021/10/04 12:08:21;;;;;;;7.30;2.33;;;;;;;19.08;27.10;101292.13;1676876;84;21129;-34
2021/10/04 12:10:59;;;;;;;4.40;2.33;;;;;;;19.01;26.91;101290.02;1667466;84;21050;-33
2021/10/04 12:13:32;;;;;;;3.80;2.65;;;;;;;18.99;26.92;101294.95;1668122;83;21077;-34
2021/10/04 12:16:06;;;;;;;6.87;2.77;;;;;;;18.97;26.91;101292.78;1666777;84;21536;-40
2021/10/04 12:18:33;;;;;;;9.15;2.15;;;;;;;19.06;27.08;101292.59;1679021;83;21118;-34
2021/10/04 12:21:23;;;;;;;4.35;2.70;;;;;;;19.17;26.70;101286.62;1687446;83;21726;-34
2021/10/04 12:24:25;;;;;;;3.22;2.40;;;;;;;19.22;26.44;101283.89;1678720;84;21527;-39
2021/10/04 13:01:12;;;;;;;6.10;3.17;;;;;;;19.23;25.67;101276.34;1685021;85;21145;-37
2021/10/04 13:04:01;;;;;;;11.28;3.25;;;;;;;19.46;25.64;101272.77;1720899;83;21013;-37
2021/10/04 13:06:30;;;;;;;7.83;3.33;;;;;;;20.10;25.23;101279.30;1717760;81;21053;-36
2021/10/04 13:08:58;;;;;;;11.83;2.70;;;;;;;20.24;24.56;101273.68;1713837;82;21120;-37
2021/10/04 13:11:25;;;;;;;4.92;2.08;;;;;;;20.12;24.96;101272.62;1712247;81;21013;-37
2021/10/04 13:13:52;;;;;;;6.03;2.33;;;;;;;20.04;25.25;101276.80;1714387;82;21064;-37
2021/10/04 13:16:19;;;;;;;6.42;2.33;;;;;;;20.05;25.19;101277.20;1737733;81;21475;-37
2021/10/04 13:18:46;;;;;;;5.78;2.58;;;;;;;19.99;25.37;101279.14;1721500;82;21105;-37
2021/10/04 13:21:12;;;;;;;5.80;2.92;;;;;;;19.84;25.06;101274.63;1717929;82;20993;-37
2021/10/04 13:23:39;;;;;;;10.43;3.12;;;;;;;19.68;25.61;101280.30;1717909;83;21073;-36
2021/10/04 13:26:09;;;;;;;9.55;3.15;;;;;;;19.56;25.65;101272.13;1718152;83;21489;-33
2021/10/04 13:28:39;;;;;;;4.72;2.65;;;;;;;19.45;26.07;101271.02;1713767;82;21076;-32
2021/10/04 13:31:08;;;;;;;4.80;2.70;;;;;;;19.35;25.86;101274.77;1712760;83;21446;-32
2021/10/04 13:33:37;;;;;;;4.17;2.67;;;;;;;19.21;25.98;101269.75;1716808;82;21093;-37
2021/10/04 13:36:04;;;;;;;2.95;2.50;;;;;;;19.11;25.78;101267.73;1718120;83;21057;-32
2021/10/04 13:38:32;;;;;;;6.47;2.87;;;;;;;19.07;25.95;101275.31;1715247;82;21636;-32
2021/10/04 13:40:58;;;;;;;3.70;2.45;;;;;;;18.99;25.92;101273.73;1713524;83;20971;-33
2021/10/04 13:43:26;;;;;;;6.55;2.42;;;;;;;18.86;26.32;101278.40;1717362;83;21066;-32
2021/10/04 13:45:54;;;;;;;7.65;3.60;;;;;;;18.71;26.67;101279.99;1718320;82;21557;-33
2021/10/04 13:48:21;;;;;;;12.88;4.10;;;;;;;18.58;26.80;101274.88;1717882;83;21061;-33
2021/10/04 13:50:48;;;;;;;4.25;3.25;;;;;;;18.67;26.59;101280.52;1718106;82;21006;-32
2021/10/04 13:53:14;;;;;;;2.52;2.30;;;;;;;18.79;26.68;101280.30;1726945;82;21033;-37
2021/10/04 13:55:41;;;;;;;7.95;2.33;;;;;;;18.77;26.73;101282.53;1712541;83;21533;-32
2021/10/04 13:58:08;;;;;;;6.70;2.85;;;;;;;18.75;27.32;101279.91;1712501;82;21584;-37
2021/10/04 14:00:35;;;;;;;6.33;2.65;;;;;;;18.82;27.11;101278.89;1715212;82;21455;-33
2021/10/04 14:03:01;;;;;;;9.15;2.62;;;;;;;19.00;26.98;101286.08;1737542;81;21037;-33
2021/10/04 14:05:28;;;;;;;5.90;2.37;;;;;;;19.20;26.80;101285.70;1714422;83;21026;-32
2021/10/04 14:07:55;;;;;;;2.98;2.47;;;;;;;19.24;26.80;101286.92;1713315;83;21053;-37
2021/10/04 14:10:24;;;;;;;5.42;2.50;;;;;;;19.13;27.12;101292.47;1712746;83;21022;-33
2021/10/04 14:12:50;;;;;;;5.00;2.77;;;;;;;19.00;27.17;101292.71;1713172;83;21069;-37
2021/10/04 14:15:17;;;;;;;3.42;3.12;;;;;;;18.87;27.62;101300.02;1713025;84;21029;-32
2021/10/04 14:17:43;;;;;;;3.15;2.60;;;;;;;18.72;27.51;101298.51;1713261;83;21088;-32
2021/10/04 14:20:13;;;;;;;3.58;2.92;;;;;;;18.64;27.77;101302.18;1713179;83;21107;-37
2021/10/04 14:22:40;;;;;;;6.00;2.90;;;;;;;18.58;27.72;101300.05;1713072;83;21073;-32
2021/10/04 14:25:08;;;;;;;4.72;2.75;;;;;;;18.69;27.90;101305.66;1713003;83;21061;-32
2021/10/04 14:27:36;;;;;;;3.65;2.92;;;;;;;18.85;27.97;101304.49;1713248;83;21032;-37
2021/10/04 14:30:03;;;;;;;8.20;2.83;;;;;;;19.11;27.70;101298.23;1713162;83;21656;-32
2021/10/04 14:32:31;;;;;;;8.30;3.27;;;;;;;19.46;27.48;101302.41;1713025;84;21061;-37
2021/10/04 14:34:57;;;;;;;4.62;2.92;;;;;;;19.79;27.02;101301.72;1713306;84;21077;-37
2021/10/04 14:37:24;;;;;;;6.00;3.42;;;;;;;20.08;26.84;101308.16;1713310;83;21026;-33
2021/10/04 14:39:52;;;;;;;9.15;3.10;;;;;;;20.26;26.30;101304.19;1707231;82;21120;-32
2021/10/04 14:42:18;;;;;;;6.70;3.83;;;;;;;20.40;25.97;101308.70;1699677;84;21041;-36
2021/10/04 14:44:45;;;;;;;13.22;2.95;;;;;;;20.50;25.71;101312.91;1713126;84;21616;-36
2021/10/04 14:47:12;;;;;;;7.92;3.10;;;;;;;20.46;25.73;101316.09;1713329;83;21529;-37
2021/10/04 14:49:39;;;;;;;7.53;3.33;;;;;;;20.58;25.56;101308.27;1713324;83;21525;-37
2021/10/04 14:52:09;;;;;;;7.12;3.15;;;;;;;20.81;25.40;101302.81;1713250;83;21556;-37
2021/10/04 14:54:37;;;;;;;5.53;3.47;;;;;;;20.95;24.98;101303.33;1713539;83;21604;-37
2021/10/04 14:57:04;;;;;;;6.47;3.55;;;;;;;20.89;24.84;101303.05;1713451;83;21560;-36
